createdAt,value
2019-06-07T00:02:00.200Z,24.00
2019-06-07T00:04:30.983Z,24.00
2019-06-07T00:07:01.957Z,24.00
2019-06-07T00:09:33.469Z,23.90
2019-06-07T00:12:08.906Z,23.80
2019-06-07T00:14:38.316Z,23.80
2019-06-07T00:17:12.481Z,23.80
2019-06-07T00:19:42.029Z,23.80
2019-06-07T00:22:18.451Z,23.80
2019-06-07T00:24:45.349Z,23.70
2019-06-07T00:27:18.276Z,23.70
2019-06-07T00:29:48.585Z,23.80
2019-06-07T00:32:21.990Z,23.80
2019-06-07T00:34:51.918Z,23.90
2019-06-07T00:37:25.227Z,23.90
2019-06-07T00:40:13.569Z,23.90
2019-06-07T00:42:27.928Z,24.00
2019-06-07T00:44:58.810Z,24.20
2019-06-07T00:47:29.496Z,24.20
2019-06-07T00:50:00.382Z,24.20
2019-06-07T00:55:09.845Z,24.30
2019-06-07T00:57:40.587Z,24.30
2019-06-07T01:00:12.308Z,24.30
2019-06-07T01:02:43.281Z,24.20
2019-06-07T01:05:15.938Z,24.20
2019-06-07T01:07:46.765Z,24.20
2019-06-07T01:10:46.277Z,24.20
2019-06-07T01:12:49.793Z,24.30
2019-06-07T01:15:28.747Z,24.30
2019-06-07T01:18:36.673Z,24.40
2019-06-07T01:20:29.184Z,24.40
2019-06-07T01:23:00.103Z,24.40
2019-06-07T01:25:31.055Z,24.40
2019-06-07T01:28:01.829Z,24.40
2019-06-07T01:30:32.556Z,24.40
2019-06-07T01:33:03.362Z,24.40
2019-06-07T01:35:34.494Z,24.40
2019-06-07T01:38:05.618Z,24.40
2019-06-07T01:40:36.880Z,24.40
2019-06-07T01:43:07.970Z,24.30
2019-06-07T01:45:38.852Z,24.30
2019-06-07T01:48:09.595Z,24.30
2019-06-07T01:50:40.585Z,24.20
2019-06-07T01:53:11.569Z,24.20
2019-06-07T01:55:42.709Z,24.10
2019-06-07T01:58:13.731Z,24.00
2019-06-07T02:00:44.756Z,24.10
2019-06-07T02:03:15.613Z,24.10
2019-06-07T02:05:46.270Z,24.00
2019-06-07T02:08:19.989Z,24.00
2019-06-07T02:10:49.677Z,24.00
2019-06-07T02:13:21.203Z,24.10
2019-06-07T02:15:52.379Z,24.10
2019-06-07T02:18:25.427Z,24.10
2019-06-07T02:20:55.581Z,24.10
2019-06-07T02:23:29.207Z,24.00
2019-06-07T02:25:58.905Z,24.10
2019-06-07T02:28:42.672Z,24.10
2019-06-07T02:31:02.429Z,24.10
2019-06-07T02:33:39.605Z,24.20
2019-06-07T02:36:05.798Z,24.30
2019-06-07T02:38:37.807Z,24.30
2019-06-07T02:41:09.120Z,24.30
2019-06-07T02:43:39.963Z,24.20
2019-06-07T02:46:31.972Z,24.20
2019-06-07T02:48:56.746Z,24.30
2019-06-07T02:51:33.633Z,24.20
2019-06-07T02:54:00.322Z,24.20
2019-06-07T02:56:44.873Z,24.20
2019-06-07T02:59:03.875Z,24.20
2019-06-07T03:01:39.449Z,24.20
2019-06-07T03:04:07.346Z,24.20
2019-06-07T03:06:43.236Z,24.20
2019-06-07T03:09:10.983Z,24.10
2019-06-07T03:11:43.450Z,24.20
2019-06-07T03:14:14.704Z,24.20
2019-06-07T03:16:51.267Z,24.20
2019-06-07T03:19:28.756Z,24.20
2019-06-07T03:21:59.811Z,24.20
2019-06-07T03:24:33.136Z,24.20
2019-06-07T03:29:36.634Z,24.30
2019-06-07T03:32:07.578Z,24.20
2019-06-07T03:34:43.324Z,24.00
2019-06-07T03:37:11.480Z,23.90
2019-06-07T03:39:42.291Z,23.90
2019-06-07T03:42:12.957Z,23.80
2019-06-07T03:44:43.817Z,23.80
2019-06-07T03:47:14.631Z,23.80
2019-06-07T03:49:45.444Z,23.60
2019-06-07T03:52:16.115Z,23.60
2019-06-07T03:54:46.901Z,23.60
2019-06-07T03:57:17.700Z,23.60
2019-06-07T03:59:48.411Z,23.60
2019-06-07T04:02:19.349Z,23.70
2019-06-07T04:04:49.992Z,23.70
2019-06-07T04:07:20.663Z,23.70
2019-06-07T04:09:51.487Z,23.70
2019-06-07T04:12:22.411Z,23.60
2019-06-07T04:14:53.565Z,23.60
2019-06-07T04:17:24.386Z,23.50
2019-06-07T04:19:55.138Z,23.70
2019-06-07T04:22:25.960Z,23.60
2019-06-07T04:24:57.010Z,23.70
2019-06-07T04:27:30.626Z,23.50
2019-06-07T04:30:07.498Z,23.50
2019-06-07T04:32:34.346Z,23.60
2019-06-07T04:35:06.618Z,23.60
2019-06-07T04:37:40.653Z,23.40
2019-06-07T04:40:10.317Z,23.50
2019-06-07T04:42:45.012Z,23.50
2019-06-07T04:45:32.948Z,23.40
2019-06-07T04:47:46.488Z,23.50
2019-06-07T04:50:17.441Z,23.60
2019-06-07T04:52:48.117Z,23.60
2019-06-07T04:55:18.723Z,23.70
2019-06-07T04:57:49.437Z,23.80
2019-06-07T05:03:02.184Z,23.80
2019-06-07T05:05:34.535Z,23.80
2019-06-07T05:08:07.822Z,23.80
2019-06-07T05:10:41.166Z,24.00
2019-06-07T05:13:11.483Z,24.10
2019-06-07T05:15:42.552Z,24.20
2019-06-07T05:18:13.611Z,24.30
2019-06-07T05:20:44.890Z,24.30
2019-06-07T05:23:59.506Z,24.30
2019-06-07T05:25:48.621Z,24.40
2019-06-07T05:28:20.147Z,24.40
2019-06-07T05:31:05.338Z,24.50
2019-06-07T05:33:26.318Z,24.50
2019-06-07T05:35:57.063Z,24.50
2019-06-07T05:38:27.967Z,24.50
2019-06-07T05:40:58.890Z,24.50
2019-06-07T05:43:35.012Z,24.50
2019-06-07T05:46:03.573Z,24.50
2019-06-07T05:48:34.603Z,24.50
2019-06-07T05:51:05.458Z,24.50
2019-06-07T05:53:39.554Z,24.60
2019-06-07T05:56:08.850Z,24.60
2019-06-07T05:58:41.893Z,24.60
2019-06-07T06:01:42.152Z,24.60
2019-06-07T06:03:48.206Z,24.70
2019-06-07T06:06:18.208Z,24.70
2019-06-07T06:08:49.577Z,24.70
2019-06-07T06:11:20.723Z,24.70
2019-06-07T06:14:06.912Z,24.70
2019-06-07T06:16:23.957Z,24.80
2019-06-07T06:18:54.622Z,24.80
2019-06-07T06:21:25.182Z,24.70
2019-06-07T06:23:56.221Z,24.80
2019-06-07T06:26:26.770Z,24.80
2019-06-07T06:28:57.881Z,24.80
2019-06-07T06:31:28.723Z,24.80
2019-06-07T06:34:00.048Z,24.80
2019-06-07T06:36:31.050Z,24.80
2019-06-07T06:39:01.650Z,24.70
2019-06-07T06:41:48.465Z,24.70
2019-06-07T06:44:05.095Z,24.70
2019-06-07T06:46:41.149Z,24.70
2019-06-07T06:49:09.079Z,24.80
2019-06-07T06:51:43.056Z,24.80
2019-06-07T06:54:14.247Z,24.80
2019-06-07T06:56:49.691Z,24.80
2019-06-07T06:59:38.015Z,24.80
2019-06-07T07:01:53.917Z,24.70
2019-06-07T07:04:25.497Z,24.70
2019-06-07T07:06:56.186Z,24.70
2019-06-07T07:09:27.310Z,24.70
2019-06-07T07:12:12.328Z,24.80
2019-06-07T07:14:38.031Z,24.70
2019-06-07T07:17:11.866Z,24.70
2019-06-07T07:19:48.451Z,24.70
2019-06-07T07:22:20.046Z,24.70
2019-06-07T07:24:54.791Z,24.70
2019-06-07T07:27:27.752Z,24.80
2019-06-07T07:30:34.811Z,24.80
2019-06-07T07:32:35.390Z,24.80
2019-06-07T07:35:06.530Z,24.60
2019-06-07T07:37:37.289Z,24.40
2019-06-07T07:40:55.509Z,24.40
2019-06-07T07:42:40.700Z,24.50
2019-06-07T07:45:11.686Z,24.40
2019-06-07T07:48:00.756Z,24.40
2019-06-07T07:50:15.163Z,24.50
2019-06-07T07:52:49.085Z,24.60
2019-06-07T07:55:18.656Z,24.60
2019-06-07T07:57:58.007Z,24.60
2019-06-07T08:00:50.259Z,24.70
2019-06-07T08:02:58.663Z,24.70
2019-06-07T08:05:41.943Z,24.70
2019-06-07T08:08:05.142Z,24.70
2019-06-07T08:10:34.248Z,24.70
2019-06-07T08:13:23.292Z,24.80
2019-06-07T08:15:37.823Z,24.80
2019-06-07T08:18:08.842Z,24.80
2019-06-07T08:20:39.968Z,24.80
2019-06-07T08:23:10.929Z,24.80
2019-06-07T08:25:41.598Z,24.80
2019-06-07T08:28:13.285Z,24.80
2019-06-07T08:30:53.218Z,24.80
2019-06-07T08:33:26.840Z,24.80
2019-06-07T08:38:43.495Z,24.80
2019-06-07T08:41:10.419Z,24.90
2019-06-07T08:43:32.073Z,24.90
2019-06-07T08:46:07.264Z,24.90
2019-06-07T08:48:36.967Z,24.90
2019-06-07T08:51:08.917Z,24.90
2019-06-07T08:53:40.680Z,24.90
2019-06-07T08:56:15.791Z,24.90
2019-06-07T08:58:46.792Z,24.90
2019-06-07T09:01:17.737Z,24.90
2019-06-07T09:03:49.617Z,24.90
2019-06-07T09:07:01.888Z,24.90
2019-06-07T09:08:55.455Z,24.90
2019-06-07T09:11:26.150Z,24.90
2019-06-07T09:14:02.200Z,24.90
2019-06-07T09:16:30.225Z,24.90
2019-06-07T09:19:04.118Z,24.90
2019-06-07T09:21:33.734Z,24.90
2019-06-07T09:24:11.305Z,24.90
2019-06-07T09:26:37.242Z,24.90
2019-06-07T09:29:11.047Z,24.90
2019-06-07T09:31:52.461Z,25.00
2019-06-07T09:34:15.092Z,25.00
2019-06-07T09:36:47.635Z,25.00
2019-06-07T09:39:18.611Z,25.00
2019-06-07T09:41:50.450Z,25.00
2019-06-07T09:44:26.160Z,25.00
2019-06-07T09:47:12.833Z,25.00
2019-06-07T09:49:33.004Z,25.00
2019-06-07T09:52:02.668Z,25.00
2019-06-07T09:57:15.835Z,25.00
2019-06-07T09:59:38.298Z,25.00
2019-06-07T10:02:13.516Z,25.00
2019-06-07T10:04:41.817Z,25.00
2019-06-07T10:07:30.779Z,25.00
2019-06-07T10:12:17.723Z,25.00
2019-06-07T10:14:48.773Z,25.00
2019-06-07T10:17:19.703Z,25.00
2019-06-07T10:19:50.364Z,25.00
2019-06-07T10:22:21.279Z,24.90
2019-06-07T10:24:52.145Z,24.90
2019-06-07T10:27:23.349Z,24.90
2019-06-07T10:29:54.493Z,24.90
2019-06-07T10:32:27.803Z,24.80
2019-06-07T10:34:58.744Z,24.90
2019-06-07T10:37:33.426Z,25.00
2019-06-07T10:40:06.785Z,25.00
2019-06-07T10:42:38.262Z,25.00
2019-06-07T10:45:10.284Z,25.00
2019-06-07T10:47:41.697Z,25.00
2019-06-07T10:50:12.692Z,25.00
2019-06-07T10:52:43.716Z,25.10
2019-06-07T10:55:14.664Z,25.10
2019-06-07T10:57:45.355Z,25.10
2019-06-07T11:00:16.263Z,25.10
2019-06-07T11:02:47.325Z,25.10
2019-06-07T11:05:19.037Z,25.10
2019-06-07T11:07:51.092Z,25.10
2019-06-07T11:10:22.201Z,25.10
2019-06-07T11:12:53.104Z,25.10
2019-06-07T11:15:23.875Z,25.10
2019-06-07T11:17:54.560Z,25.10
2019-06-07T11:20:25.438Z,25.10
2019-06-07T11:22:56.614Z,25.10
2019-06-07T11:25:27.473Z,25.10
2019-06-07T11:27:58.264Z,25.10
2019-06-07T11:30:29.234Z,25.10
2019-06-07T11:33:00.059Z,25.10
2019-06-07T11:35:30.972Z,25.10
2019-06-07T11:38:01.765Z,25.10
2019-06-07T11:40:35.888Z,25.10
2019-06-07T11:43:06.552Z,25.10
2019-06-07T11:45:37.788Z,25.10
2019-06-07T11:48:09.139Z,25.10
2019-06-07T11:50:40.021Z,25.10
2019-06-07T11:53:10.959Z,25.20
2019-06-07T11:55:41.932Z,25.20
2019-06-07T11:58:16.450Z,25.20
2019-06-07T12:00:45.647Z,25.20
2019-06-07T12:03:17.914Z,25.20
2019-06-07T12:05:48.942Z,25.20
2019-06-07T12:08:19.910Z,25.20
2019-06-07T12:10:50.512Z,25.20
2019-06-07T12:13:21.213Z,25.20
2019-06-07T12:15:52.162Z,25.20
2019-06-07T12:18:23.206Z,25.20
2019-06-07T12:20:53.987Z,25.20
2019-06-07T12:23:24.714Z,25.20
2019-06-07T12:25:55.664Z,25.20
2019-06-07T12:28:26.557Z,25.20
2019-06-07T12:30:57.378Z,25.20
2019-06-07T12:33:28.265Z,25.20
2019-06-07T12:35:59.029Z,25.20
2019-06-07T12:38:30.092Z,25.20
2019-06-07T12:41:01.069Z,25.20
2019-06-07T12:43:31.740Z,25.20
2019-06-07T12:46:02.591Z,25.20
2019-06-07T12:48:33.636Z,25.20
2019-06-07T12:51:04.615Z,25.20
2019-06-07T12:53:35.584Z,25.20
2019-06-07T12:56:06.209Z,25.20
2019-06-07T12:58:39.485Z,25.20
2019-06-07T13:01:09.440Z,25.20
2019-06-07T13:03:40.158Z,25.20
2019-06-07T13:06:10.847Z,25.30
2019-06-07T13:08:41.689Z,25.30
2019-06-07T13:11:17.548Z,25.30
2019-06-07T13:13:45.227Z,25.30
2019-06-07T13:16:16.547Z,25.30
2019-06-07T13:18:47.778Z,25.30
2019-06-07T13:21:18.596Z,25.30
2019-06-07T13:23:49.514Z,25.30
2019-06-07T13:26:20.622Z,25.30
2019-06-07T13:28:51.870Z,25.30
2019-06-07T13:31:23.382Z,25.30
2019-06-07T13:33:54.482Z,25.30
2019-06-07T13:36:25.191Z,25.30
2019-06-07T13:38:56.079Z,25.30
2019-06-07T13:41:40.494Z,25.30
2019-06-07T13:44:00.168Z,25.30
2019-06-07T13:46:31.060Z,25.30
2019-06-07T13:49:01.941Z,25.30
2019-06-07T13:51:33.450Z,25.30
2019-06-07T13:54:04.679Z,25.30
2019-06-07T13:56:35.434Z,25.30
2019-06-07T13:59:06.142Z,25.20
2019-06-07T14:01:36.951Z,25.20
2019-06-07T14:04:08.027Z,25.20
2019-06-07T14:06:39.063Z,25.20
2019-06-07T14:09:09.869Z,25.20
2019-06-07T14:11:50.588Z,25.20
2019-06-07T14:14:13.910Z,25.20
2019-06-07T14:16:44.566Z,25.20
2019-06-07T14:19:15.602Z,25.30
2019-06-07T14:21:46.291Z,25.30
2019-06-07T14:24:17.095Z,25.30
2019-06-07T14:27:06.709Z,25.30
2019-06-07T14:29:38.345Z,25.30
2019-06-07T14:32:09.464Z,25.30
2019-06-07T14:34:40.644Z,25.40
2019-06-07T14:37:11.603Z,25.30
2019-06-07T14:39:42.746Z,25.30
2019-06-07T14:42:14.023Z,25.30
2019-06-07T14:44:44.827Z,25.30
2019-06-07T14:47:15.653Z,25.30
2019-06-07T14:49:46.506Z,25.30
2019-06-07T14:52:17.497Z,25.40
2019-06-07T14:54:48.208Z,25.40
2019-06-07T14:57:19.066Z,25.40
2019-06-07T14:59:49.888Z,25.40
2019-06-07T15:02:20.786Z,25.40
2019-06-07T15:04:51.509Z,25.40
2019-06-07T15:07:22.225Z,25.40
2019-06-07T15:09:53.108Z,25.40
2019-06-07T15:12:25.447Z,25.30
2019-06-07T15:14:56.817Z,25.30
2019-06-07T15:17:28.412Z,25.30
2019-06-07T15:19:59.365Z,25.30
2019-06-07T15:22:31.965Z,25.30
2019-06-07T15:25:03.062Z,25.30
2019-06-07T15:27:33.704Z,25.30
2019-06-07T15:30:09.999Z,25.30
2019-06-07T15:32:39.539Z,25.30
2019-06-07T15:35:10.765Z,25.30
2019-06-07T15:37:41.597Z,25.30
2019-06-07T15:40:12.497Z,25.30
2019-06-07T15:42:52.441Z,25.30
2019-06-07T15:45:16.061Z,25.30
2019-06-07T15:47:46.877Z,25.30
2019-06-07T15:50:17.981Z,25.40
2019-06-07T15:52:48.918Z,25.40
2019-06-07T15:55:20.391Z,25.40
2019-06-07T15:57:51.078Z,25.40
2019-06-07T16:00:21.827Z,25.40
2019-06-07T16:02:52.778Z,25.40
2019-06-07T16:05:23.513Z,25.40
2019-06-07T16:07:55.259Z,25.40
2019-06-07T16:10:26.318Z,25.40
2019-06-07T16:13:00.695Z,25.40
2019-06-07T16:15:29.741Z,25.40
2019-06-07T16:18:00.691Z,25.40
2019-06-07T16:20:31.612Z,25.40
2019-06-07T16:23:02.676Z,25.40
2019-06-07T16:25:33.953Z,25.40
2019-06-07T16:28:04.855Z,25.40
2019-06-07T16:30:36.341Z,25.40
2019-06-07T16:33:07.196Z,25.40
2019-06-07T16:35:39.054Z,25.40
2019-06-07T16:38:10.037Z,25.40
2019-06-07T16:40:40.780Z,25.40
2019-06-07T16:43:17.813Z,25.40
2019-06-07T16:45:44.960Z,25.40
2019-06-07T16:48:15.559Z,25.40
2019-06-07T16:50:46.394Z,25.30
2019-06-07T16:53:17.496Z,25.30
2019-06-07T16:55:48.964Z,25.40
2019-06-07T16:58:19.861Z,25.40
2019-06-07T17:00:50.662Z,25.40
2019-06-07T17:03:21.502Z,25.40
2019-06-07T17:05:52.865Z,25.40
2019-06-07T17:08:24.146Z,25.40
2019-06-07T17:10:55.035Z,25.40
2019-06-07T17:13:33.594Z,25.40
2019-06-07T17:15:58.410Z,25.40
2019-06-07T17:18:29.300Z,25.40
2019-06-07T17:21:00.132Z,25.40
2019-06-07T17:23:31.466Z,25.40
2019-06-07T17:26:02.341Z,25.30
2019-06-07T17:28:33.643Z,25.40
2019-06-07T17:31:04.442Z,25.40
2019-06-07T17:33:35.188Z,25.30
2019-06-07T17:36:05.908Z,25.40
2019-06-07T17:38:36.825Z,25.40
2019-06-07T17:41:07.538Z,25.40
2019-06-07T17:43:49.467Z,25.40
2019-06-07T17:46:11.028Z,25.40
2019-06-07T17:48:41.985Z,25.40
2019-06-07T17:51:13.146Z,25.40
2019-06-07T17:53:44.184Z,25.40
2019-06-07T17:56:15.311Z,25.40
2019-06-07T17:58:46.404Z,25.40
2019-06-07T18:01:17.619Z,25.40
2019-06-07T18:03:49.152Z,25.40
2019-06-07T18:06:20.425Z,25.40
2019-06-07T18:08:51.734Z,25.40
2019-06-07T18:11:22.585Z,25.40
2019-06-07T18:14:09.388Z,25.40
2019-06-07T18:16:26.147Z,25.40
2019-06-07T18:18:56.837Z,25.40
2019-06-07T18:21:27.521Z,25.40
2019-06-07T18:23:58.680Z,25.50
2019-06-07T18:26:29.639Z,25.50
2019-06-07T18:29:00.656Z,25.50
2019-06-07T18:31:31.443Z,25.50
2019-06-07T18:34:02.556Z,25.50
2019-06-07T18:36:33.533Z,25.40
2019-06-07T18:39:05.108Z,25.40
2019-06-07T18:41:35.827Z,25.40
2019-06-07T18:44:20.752Z,25.40
2019-06-07T18:46:38.911Z,25.40
2019-06-07T18:49:09.786Z,25.40
2019-06-07T18:51:40.909Z,25.40
2019-06-07T18:54:11.552Z,25.40
2019-06-07T18:56:42.486Z,25.40
2019-06-07T18:59:13.379Z,25.40
2019-06-07T19:01:44.320Z,25.40
2019-06-07T19:04:15.113Z,25.40
2019-06-07T19:06:46.092Z,25.40
2019-06-07T19:09:16.932Z,25.40
2019-06-07T19:11:55.188Z,25.40
2019-06-07T19:14:36.555Z,25.40
2019-06-07T19:16:59.814Z,25.40
2019-06-07T19:19:30.697Z,25.40
2019-06-07T19:22:01.817Z,25.40
2019-06-07T19:24:32.449Z,25.40
2019-06-07T19:27:03.263Z,25.40
2019-06-07T19:29:34.036Z,25.40
2019-06-07T19:32:05.255Z,25.40
2019-06-07T19:34:36.089Z,25.40
2019-06-07T19:37:07.139Z,25.50
2019-06-07T19:39:37.829Z,25.50
2019-06-07T19:42:08.774Z,25.50
2019-06-07T19:44:52.167Z,25.50
2019-06-07T19:47:12.440Z,25.50
2019-06-07T19:49:43.342Z,25.50
2019-06-07T19:52:14.293Z,25.50
2019-06-07T19:54:45.182Z,25.50
2019-06-07T19:57:16.304Z,25.50
2019-06-07T19:59:47.477Z,25.40
2019-06-07T20:02:18.409Z,25.40
2019-06-07T20:04:49.108Z,25.40
2019-06-07T20:07:20.158Z,25.40
2019-06-07T20:09:51.230Z,25.40
2019-06-07T20:12:22.037Z,25.40
2019-06-07T20:14:54.016Z,25.40
2019-06-07T20:17:25.617Z,25.40
2019-06-07T20:19:56.498Z,25.40
2019-06-07T20:22:27.544Z,25.40
2019-06-07T20:24:58.859Z,25.40
2019-06-07T20:27:30.340Z,25.40
2019-06-07T20:30:02.411Z,25.40
2019-06-07T20:32:33.608Z,25.40
2019-06-07T20:35:06.014Z,25.40
2019-06-07T20:37:37.080Z,25.40
2019-06-07T20:40:22.408Z,25.40
2019-06-07T20:42:41.203Z,25.40
2019-06-07T20:45:11.907Z,25.40
2019-06-07T20:47:42.704Z,25.40
2019-06-07T20:50:13.766Z,25.40
2019-06-07T20:52:44.947Z,25.50
2019-06-07T20:55:16.428Z,25.50
2019-06-07T20:57:47.305Z,25.50
2019-06-07T21:00:22.169Z,25.50
2019-06-07T21:02:51.003Z,25.60
2019-06-07T21:05:21.831Z,25.60
2019-06-07T21:07:52.632Z,25.60
2019-06-07T21:10:23.586Z,25.50
2019-06-07T21:12:54.290Z,25.50
2019-06-07T21:15:25.162Z,25.50
2019-06-07T21:17:56.209Z,25.50
2019-06-07T21:20:27.141Z,25.50
2019-06-07T21:22:58.259Z,25.50
2019-06-07T21:25:29.130Z,25.50
2019-06-07T21:28:00.931Z,25.40
2019-06-07T21:30:32.083Z,25.40
2019-06-07T21:33:03.603Z,25.40
2019-06-07T21:35:34.611Z,25.40
2019-06-07T21:38:06.121Z,25.40
2019-06-07T21:40:36.999Z,25.40
2019-06-07T21:43:08.720Z,25.40
2019-06-07T21:45:39.696Z,25.40
2019-06-07T21:48:11.607Z,25.40
2019-06-07T21:50:42.627Z,25.40
2019-06-07T21:53:13.230Z,25.40
2019-06-07T21:55:43.953Z,25.40
2019-06-07T21:58:14.731Z,25.40
2019-06-07T22:01:23.943Z,25.40
2019-06-07T22:03:54.933Z,25.40
2019-06-07T22:06:25.701Z,25.40
2019-06-07T22:08:56.771Z,25.40
2019-06-07T22:11:27.957Z,25.50
2019-06-07T22:13:58.788Z,25.50
2019-06-07T22:16:30.775Z,25.50
2019-06-07T22:19:02.431Z,25.50
2019-06-07T22:21:33.422Z,25.60
2019-06-07T22:24:04.816Z,25.60
2019-06-07T22:26:35.864Z,25.60
2019-06-07T22:29:06.705Z,25.60
2019-06-07T22:31:37.495Z,25.60
2019-06-07T22:34:08.803Z,25.50
2019-06-07T22:36:39.820Z,25.50
2019-06-07T22:39:11.689Z,25.50
2019-06-07T22:41:42.788Z,25.50
2019-06-07T22:44:14.881Z,25.50
2019-06-07T22:46:45.860Z,25.50
2019-06-07T22:49:16.933Z,25.50
2019-06-07T22:51:47.570Z,25.50
2019-06-07T22:54:18.587Z,25.40
2019-06-07T22:56:54.313Z,25.50
2019-06-07T22:59:25.406Z,25.40
2019-06-07T23:01:56.235Z,25.40
2019-06-07T23:04:27.078Z,25.40
2019-06-07T23:06:57.760Z,25.40
2019-06-07T23:09:28.635Z,25.40
2019-06-07T23:11:59.566Z,25.40
2019-06-07T23:14:30.328Z,25.40
2019-06-07T23:17:00.912Z,25.40
2019-06-07T23:19:31.914Z,25.40
2019-06-07T23:22:02.892Z,25.40
2019-06-07T23:24:33.683Z,25.40
2019-06-07T23:27:04.610Z,25.40
2019-06-07T23:29:35.386Z,25.40
2019-06-07T23:32:06.333Z,25.50
2019-06-07T23:34:37.086Z,25.50
2019-06-07T23:37:07.970Z,25.50
2019-06-07T23:39:38.726Z,25.50
2019-06-07T23:42:11.004Z,25.60
2019-06-07T23:44:41.964Z,25.60
2019-06-07T23:47:15.510Z,25.60
2019-06-07T23:49:45.653Z,25.60
2019-06-07T23:52:17.940Z,25.60
2019-06-07T23:54:48.582Z,25.60
2019-06-07T23:57:19.594Z,25.60
2019-06-07T23:59:53.227Z,25.60
